sensor_id;sensor_type;location;lat;lon;timestamp;P1;durP1;ratioP1;P2;durP2;ratioP2
62933;SDS011;49038;47.600;19.242;2024-01-15T00:01:23;10.38;;;7.37;;
62933;SDS011;49038;47.600;19.242;2024-01-15T00:04:25;13.23;;;8.48;;
62933;SDS011;49038;47.600;19.242;2024-01-15T00:07:30;14.50;;;9.75;;
62933;SDS011;49038;47.600;19.242;2024-01-15T00:10:32;10.43;;;7.20;;
62933;SDS011;49038;47.600;19.242;2024-01-15T00:13:35;11.63;;;7.95;;
62933;SDS011;49038;47.600;19.242;2024-01-15T00:16:40;17.33;;;9.43;;
62933;SDS011;49038;47.600;19.242;2024-01-15T00:19:42;12.07;;;7.07;;
62933;SDS011;49038;47.600;19.242;2024-01-15T00:22:44;12.93;;;7.28;;
62933;SDS011;49038;47.600;19.242;2024-01-15T00:25:47;12.07;;;7.25;;
62933;SDS011;49038;47.600;19.242;2024-01-15T00:28:49;15.38;;;8.20;;
62933;SDS011;49038;47.600;19.242;2024-01-15T00:31:55;10.80;;;7.53;;
62933;SDS011;49038;47.600;19.242;2024-01-15T00:34:57;15.05;;;5.82;;
62933;SDS011;49038;47.600;19.242;2024-01-15T00:38:00;8.35;;;6.00;;
62933;SDS011;49038;47.600;19.242;2024-01-15T00:41:02;11.12;;;7.05;;
62933;SDS011;49038;47.600;19.242;2024-01-15T00:44:04;11.43;;;7.28;;
62933;SDS011;49038;47.600;19.242;2024-01-15T00:47:07;10.70;;;8.35;;
62933;SDS011;49038;47.600;19.242;2024-01-15T00:50:09;13.85;;;7.00;;
62933;SDS011;49038;47.600;19.242;2024-01-15T00:53:11;19.35;;;9.35;;
62933;SDS011;49038;47.600;19.242;2024-01-15T00:56:13;15.15;;;9.70;;
62933;SDS011;49038;47.600;19.242;2024-01-15T00:59:16;10.57;;;6.65;;
62933;SDS011;49038;47.600;19.242;2024-01-15T01:02:18;12.90;;;8.23;;
62933;SDS011;49038;47.600;19.242;2024-01-15T01:05:20;10.40;;;6.90;;
62933;SDS011;49038;47.600;19.242;2024-01-15T01:08:23;11.07;;;7.05;;
62933;SDS011;49038;47.600;19.242;2024-01-15T01:11:25;12.20;;;7.43;;
62933;SDS011;49038;47.600;19.242;2024-01-15T01:14:27;10.02;;;5.90;;
62933;SDS011;49038;47.600;19.242;2024-01-15T01:17:29;9.93;;;6.90;;
62933;SDS011;49038;47.600;19.242;2024-01-15T01:20:32;13.90;;;8.10;;
62933;SDS011;49038;47.600;19.242;2024-01-15T01:23:35;8.73;;;6.80;;
62933;SDS011;49038;47.600;19.242;2024-01-15T01:26:37;14.45;;;6.75;;
62933;SDS011;49038;47.600;19.242;2024-01-15T01:29:39;10.02;;;6.80;;
62933;SDS011;49038;47.600;19.242;2024-01-15T01:32:41;15.95;;;7.03;;
62933;SDS011;49038;47.600;19.242;2024-01-15T01:35:44;9.73;;;6.85;;
62933;SDS011;49038;47.600;19.242;2024-01-15T01:38:47;23.62;;;8.27;;
62933;SDS011;49038;47.600;19.242;2024-01-15T01:41:49;9.77;;;7.37;;
62933;SDS011;49038;47.600;19.242;2024-01-15T01:44:51;9.68;;;8.13;;
62933;SDS011;49038;47.600;19.242;2024-01-15T01:47:54;13.27;;;7.72;;
62933;SDS011;49038;47.600;19.242;2024-01-15T01:51:00;13.15;;;7.90;;
62933;SDS011;49038;47.600;19.242;2024-01-15T01:54:05;14.38;;;8.23;;
62933;SDS011;49038;47.600;19.242;2024-01-15T01:57:08;11.70;;;7.57;;
62933;SDS011;49038;47.600;19.242;2024-01-15T02:00:11;10.57;;;7.97;;
62933;SDS011;49038;47.600;19.242;2024-01-15T02:03:14;16.73;;;7.70;;
62933;SDS011;49038;47.600;19.242;2024-01-15T02:06:16;14.55;;;7.85;;
62933;SDS011;49038;47.600;19.242;2024-01-15T02:09:18;11.20;;;8.70;;
62933;SDS011;49038;47.600;19.242;2024-01-15T02:12:21;14.32;;;7.47;;
62933;SDS011;49038;47.600;19.242;2024-01-15T02:15:24;10.95;;;7.47;;
62933;SDS011;49038;47.600;19.242;2024-01-15T02:18:26;10.93;;;8.27;;
62933;SDS011;49038;47.600;19.242;2024-01-15T02:21:28;7.90;;;6.82;;
62933;SDS011;49038;47.600;19.242;2024-01-15T02:24:31;9.38;;;7.07;;
62933;SDS011;49038;47.600;19.242;2024-01-15T02:27:33;14.02;;;8.80;;
62933;SDS011;49038;47.600;19.242;2024-01-15T02:30:39;12.20;;;8.05;;
62933;SDS011;49038;47.600;19.242;2024-01-15T02:33:43;9.80;;;5.82;;
62933;SDS011;49038;47.600;19.242;2024-01-15T02:36:48;12.90;;;9.00;;
62933;SDS011;49038;47.600;19.242;2024-01-15T02:39:50;14.05;;;8.15;;
62933;SDS011;49038;47.600;19.242;2024-01-15T02:42:52;14.90;;;8.20;;
62933;SDS011;49038;47.600;19.242;2024-01-15T02:45:54;11.70;;;8.23;;
62933;SDS011;49038;47.600;19.242;2024-01-15T02:48:57;20.55;;;8.45;;
62933;SDS011;49038;47.600;19.242;2024-01-15T02:51:59;11.32;;;7.45;;
62933;SDS011;49038;47.600;19.242;2024-01-15T02:55:01;11.60;;;8.02;;
62933;SDS011;49038;47.600;19.242;2024-01-15T02:58:03;11.93;;;8.05;;
62933;SDS011;49038;47.600;19.242;2024-01-15T03:01:06;14.18;;;8.15;;
62933;SDS011;49038;47.600;19.242;2024-01-15T03:04:08;11.88;;;8.05;;
62933;SDS011;49038;47.600;19.242;2024-01-15T03:07:10;13.57;;;9.10;;
62933;SDS011;49038;47.600;19.242;2024-01-15T03:10:13;16.77;;;9.00;;
62933;SDS011;49038;47.600;19.242;2024-01-15T03:13:15;12.70;;;6.90;;
62933;SDS011;49038;47.600;19.242;2024-01-15T03:16:17;15.05;;;6.93;;
62933;SDS011;49038;47.600;19.242;2024-01-15T03:19:21;8.52;;;7.15;;
62933;SDS011;49038;47.600;19.242;2024-01-15T03:22:24;11.63;;;8.45;;
62933;SDS011;49038;47.600;19.242;2024-01-15T03:25:26;14.57;;;7.43;;
62933;SDS011;49038;47.600;19.242;2024-01-15T03:28:28;16.27;;;8.10;;
62933;SDS011;49038;47.600;19.242;2024-01-15T03:31:32;13.85;;;7.97;;
62933;SDS011;49038;47.600;19.242;2024-01-15T03:34:34;16.92;;;9.23;;
62933;SDS011;49038;47.600;19.242;2024-01-15T03:37:37;14.63;;;8.32;;
62933;SDS011;49038;47.600;19.242;2024-01-15T03:40:39;20.35;;;7.03;;
62933;SDS011;49038;47.600;19.242;2024-01-15T03:43:41;13.13;;;8.52;;
62933;SDS011;49038;47.600;19.242;2024-01-15T03:46:44;16.60;;;8.45;;
62933;SDS011;49038;47.600;19.242;2024-01-15T03:49:46;8.27;;;6.50;;
62933;SDS011;49038;47.600;19.242;2024-01-15T03:52:48;14.90;;;9.60;;
62933;SDS011;49038;47.600;19.242;2024-01-15T03:55:50;15.00;;;8.77;;
62933;SDS011;49038;47.600;19.242;2024-01-15T03:58:54;11.68;;;8.18;;
62933;SDS011;49038;47.600;19.242;2024-01-15T04:01:56;24.25;;;8.65;;
62933;SDS011;49038;47.600;19.242;2024-01-15T04:04:58;11.32;;;7.47;;
62933;SDS011;49038;47.600;19.242;2024-01-15T04:08:00;13.73;;;8.77;;
62933;SDS011;49038;47.600;19.242;2024-01-15T04:11:03;12.25;;;8.57;;
62933;SDS011;49038;47.600;19.242;2024-01-15T04:14:05;13.43;;;8.68;;
62933;SDS011;49038;47.600;19.242;2024-01-15T04:17:08;10.23;;;8.15;;
62933;SDS011;49038;47.600;19.242;2024-01-15T04:20:10;13.25;;;7.55;;
62933;SDS011;49038;47.600;19.242;2024-01-15T04:23:12;8.57;;;7.07;;
62933;SDS011;49038;47.600;19.242;2024-01-15T04:26:15;10.15;;;7.90;;
62933;SDS011;49038;47.600;19.242;2024-01-15T04:29:17;9.90;;;8.25;;
62933;SDS011;49038;47.600;19.242;2024-01-15T04:32:19;9.10;;;7.90;;
62933;SDS011;49038;47.600;19.242;2024-01-15T04:35:21;8.30;;;6.55;;
62933;SDS011;49038;47.600;19.242;2024-01-15T04:38:23;16.00;;;8.43;;
62933;SDS011;49038;47.600;19.242;2024-01-15T04:41:26;11.90;;;7.72;;
62933;SDS011;49038;47.600;19.242;2024-01-15T04:44:28;11.10;;;8.07;;
62933;SDS011;49038;47.600;19.242;2024-01-15T04:47:30;10.20;;;6.28;;
62933;SDS011;49038;47.600;19.242;2024-01-15T04:50:32;9.77;;;7.90;;
62933;SDS011;49038;47.600;19.242;2024-01-15T04:53:35;9.95;;;7.55;;
62933;SDS011;49038;47.600;19.242;2024-01-15T04:56:37;12.73;;;7.47;;
62933;SDS011;49038;47.600;19.242;2024-01-15T04:59:39;11.50;;;8.23;;
62933;SDS011;49038;47.600;19.242;2024-01-15T05:02:41;8.23;;;7.07;;
62933;SDS011;49038;47.600;19.242;2024-01-15T05:05:44;14.13;;;7.50;;
62933;SDS011;49038;47.600;19.242;2024-01-15T05:08:46;10.00;;;7.12;;
62933;SDS011;49038;47.600;19.242;2024-01-15T05:11:48;17.10;;;11.38;;
62933;SDS011;49038;47.600;19.242;2024-01-15T05:14:50;13.45;;;8.40;;
62933;SDS011;49038;47.600;19.242;2024-01-15T05:17:53;9.00;;;7.87;;
62933;SDS011;49038;47.600;19.242;2024-01-15T05:20:55;16.40;;;8.73;;
62933;SDS011;49038;47.600;19.242;2024-01-15T05:23:57;10.07;;;8.85;;
62933;SDS011;49038;47.600;19.242;2024-01-15T05:26:59;10.73;;;8.82;;
62933;SDS011;49038;47.600;19.242;2024-01-15T05:30:02;9.63;;;8.65;;
62933;SDS011;49038;47.600;19.242;2024-01-15T05:33:04;12.63;;;8.43;;
62933;SDS011;49038;47.600;19.242;2024-01-15T05:36:07;16.87;;;10.18;;
62933;SDS011;49038;47.600;19.242;2024-01-15T05:39:09;14.65;;;9.77;;
62933;SDS011;49038;47.600;19.242;2024-01-15T05:42:11;12.40;;;9.70;;
62933;SDS011;49038;47.600;19.242;2024-01-15T05:45:14;17.08;;;10.68;;
62933;SDS011;49038;47.600;19.242;2024-01-15T05:48:16;19.05;;;12.48;;
62933;SDS011;49038;47.600;19.242;2024-01-15T05:51:19;13.38;;;9.50;;
62933;SDS011;49038;47.600;19.242;2024-01-15T05:54:21;9.20;;;7.78;;
62933;SDS011;49038;47.600;19.242;2024-01-15T05:57:23;10.70;;;8.45;;
62933;SDS011;49038;47.600;19.242;2024-01-15T06:00:25;18.45;;;11.43;;
62933;SDS011;49038;47.600;19.242;2024-01-15T06:03:28;14.75;;;10.07;;
62933;SDS011;49038;47.600;19.242;2024-01-15T06:06:30;21.67;;;11.20;;
62933;SDS011;49038;47.600;19.242;2024-01-15T06:09:32;11.90;;;7.75;;
62933;SDS011;49038;47.600;19.242;2024-01-15T06:12:34;11.68;;;8.25;;
62933;SDS011;49038;47.600;19.242;2024-01-15T06:15:37;12.90;;;8.68;;
62933;SDS011;49038;47.600;19.242;2024-01-15T06:18:39;12.20;;;8.10;;
62933;SDS011;49038;47.600;19.242;2024-01-15T06:21:42;16.70;;;10.90;;
62933;SDS011;49038;47.600;19.242;2024-01-15T06:24:44;10.52;;;8.00;;
62933;SDS011;49038;47.600;19.242;2024-01-15T06:27:46;11.48;;;9.38;;
62933;SDS011;49038;47.600;19.242;2024-01-15T06:30:48;15.85;;;9.45;;
62933;SDS011;49038;47.600;19.242;2024-01-15T06:33:51;21.05;;;9.75;;
62933;SDS011;49038;47.600;19.242;2024-01-15T06:36:53;11.25;;;9.27;;
62933;SDS011;49038;47.600;19.242;2024-01-15T06:39:56;22.00;;;11.57;;
62933;SDS011;49038;47.600;19.242;2024-01-15T06:42:58;13.23;;;9.23;;
62933;SDS011;49038;47.600;19.242;2024-01-15T06:46:01;15.25;;;10.88;;
62933;SDS011;49038;47.600;19.242;2024-01-15T06:49:08;12.23;;;8.90;;
62933;SDS011;49038;47.600;19.242;2024-01-15T06:52:10;16.75;;;11.70;;
62933;SDS011;49038;47.600;19.242;2024-01-15T06:55:14;18.52;;;10.15;;
62933;SDS011;49038;47.600;19.242;2024-01-15T06:58:16;11.12;;;9.40;;
62933;SDS011;49038;47.600;19.242;2024-01-15T07:01:18;24.40;;;10.27;;
62933;SDS011;49038;47.600;19.242;2024-01-15T07:04:21;13.43;;;10.73;;
62933;SDS011;49038;47.600;19.242;2024-01-15T07:07:23;16.40;;;12.32;;
62933;SDS011;49038;47.600;19.242;2024-01-15T07:10:25;14.77;;;10.85;;
62933;SDS011;49038;47.600;19.242;2024-01-15T07:13:28;30.88;;;10.88;;
62933;SDS011;49038;47.600;19.242;2024-01-15T07:16:30;17.37;;;11.27;;
62933;SDS011;49038;47.600;19.242;2024-01-15T07:19:39;10.93;;;8.80;;
62933;SDS011;49038;47.600;19.242;2024-01-15T07:22:41;19.77;;;12.07;;
62933;SDS011;49038;47.600;19.242;2024-01-15T07:25:43;15.82;;;10.25;;
62933;SDS011;49038;47.600;19.242;2024-01-15T07:28:46;27.65;;;15.07;;
62933;SDS011;49038;47.600;19.242;2024-01-15T07:31:49;22.25;;;13.50;;
62933;SDS011;49038;47.600;19.242;2024-01-15T07:34:52;19.15;;;12.63;;
62933;SDS011;49038;47.600;19.242;2024-01-15T07:37:54;16.60;;;11.45;;
62933;SDS011;49038;47.600;19.242;2024-01-15T07:40:56;22.15;;;11.23;;
62933;SDS011;49038;47.600;19.242;2024-01-15T07:43:58;11.77;;;9.30;;
62933;SDS011;49038;47.600;19.242;2024-01-15T07:47:01;15.73;;;10.82;;
62933;SDS011;49038;47.600;19.242;2024-01-15T07:50:03;38.00;;;11.60;;
62933;SDS011;49038;47.600;19.242;2024-01-15T07:53:07;11.88;;;9.48;;
62933;SDS011;49038;47.600;19.242;2024-01-15T07:56:09;17.48;;;9.80;;
62933;SDS011;49038;47.600;19.242;2024-01-15T07:59:12;13.07;;;10.48;;
62933;SDS011;49038;47.600;19.242;2024-01-15T08:02:14;12.98;;;10.45;;
62933;SDS011;49038;47.600;19.242;2024-01-15T08:05:17;14.82;;;11.52;;
62933;SDS011;49038;47.600;19.242;2024-01-15T08:08:19;18.00;;;9.32;;
62933;SDS011;49038;47.600;19.242;2024-01-15T08:11:23;15.52;;;11.35;;
62933;SDS011;49038;47.600;19.242;2024-01-15T08:14:25;15.63;;;12.40;;
62933;SDS011;49038;47.600;19.242;2024-01-15T08:17:27;26.08;;;14.20;;
62933;SDS011;49038;47.600;19.242;2024-01-15T08:20:30;18.52;;;11.85;;
62933;SDS011;49038;47.600;19.242;2024-01-15T08:23:34;17.50;;;13.02;;
62933;SDS011;49038;47.600;19.242;2024-01-15T08:26:36;11.25;;;8.13;;
62933;SDS011;49038;47.600;19.242;2024-01-15T08:29:38;9.68;;;6.85;;
62933;SDS011;49038;47.600;19.242;2024-01-15T08:32:41;13.73;;;8.45;;
62933;SDS011;49038;47.600;19.242;2024-01-15T08:35:44;10.93;;;7.20;;
62933;SDS011;49038;47.600;19.242;2024-01-15T08:38:47;14.63;;;8.65;;
62933;SDS011;49038;47.600;19.242;2024-01-15T08:41:49;12.63;;;8.10;;
62933;SDS011;49038;47.600;19.242;2024-01-15T08:44:52;8.80;;;7.78;;
62933;SDS011;49038;47.600;19.242;2024-01-15T08:47:54;14.50;;;8.35;;
62933;SDS011;49038;47.600;19.242;2024-01-15T08:50:56;6.20;;;5.62;;
62933;SDS011;49038;47.600;19.242;2024-01-15T08:53:58;9.95;;;8.15;;
62933;SDS011;49038;47.600;19.242;2024-01-15T08:57:01;10.43;;;5.95;;
62933;SDS011;49038;47.600;19.242;2024-01-15T09:00:03;10.73;;;6.32;;
62933;SDS011;49038;47.600;19.242;2024-01-15T09:03:06;8.27;;;7.45;;
62933;SDS011;49038;47.600;19.242;2024-01-15T09:06:08;7.20;;;5.55;;
62933;SDS011;49038;47.600;19.242;2024-01-15T09:09:12;9.55;;;5.97;;
62933;SDS011;49038;47.600;19.242;2024-01-15T09:12:14;10.27;;;7.50;;
62933;SDS011;49038;47.600;19.242;2024-01-15T09:15:17;8.77;;;4.70;;
62933;SDS011;49038;47.600;19.242;2024-01-15T09:18:19;5.00;;;4.50;;
62933;SDS011;49038;47.600;19.242;2024-01-15T09:21:22;11.05;;;5.82;;
62933;SDS011;49038;47.600;19.242;2024-01-15T09:24:24;6.30;;;4.55;;
62933;SDS011;49038;47.600;19.242;2024-01-15T09:27:29;6.07;;;3.85;;
62933;SDS011;49038;47.600;19.242;2024-01-15T09:30:32;9.15;;;4.15;;
62933;SDS011;49038;47.600;19.242;2024-01-15T09:33:34;7.50;;;4.28;;
62933;SDS011;49038;47.600;19.242;2024-01-15T09:36:40;5.12;;;3.42;;
62933;SDS011;49038;47.600;19.242;2024-01-15T09:39:45;3.50;;;3.20;;
62933;SDS011;49038;47.600;19.242;2024-01-15T09:42:48;4.30;;;3.37;;
62933;SDS011;49038;47.600;19.242;2024-01-15T09:45:51;7.60;;;2.97;;
62933;SDS011;49038;47.600;19.242;2024-01-15T09:48:53;8.70;;;3.90;;
62933;SDS011;49038;47.600;19.242;2024-01-15T09:51:56;7.03;;;5.18;;
62933;SDS011;49038;47.600;19.242;2024-01-15T09:55:12;6.12;;;3.97;;
62933;SDS011;49038;47.600;19.242;2024-01-15T09:58:15;5.93;;;3.80;;
62933;SDS011;49038;47.600;19.242;2024-01-15T10:01:17;3.20;;;2.58;;
62933;SDS011;49038;47.600;19.242;2024-01-15T10:04:22;5.45;;;3.80;;
62933;SDS011;49038;47.600;19.242;2024-01-15T10:07:25;7.35;;;3.53;;
62933;SDS011;49038;47.600;19.242;2024-01-15T10:10:28;2.90;;;2.08;;
62933;SDS011;49038;47.600;19.242;2024-01-15T10:13:30;3.75;;;2.85;;
62933;SDS011;49038;47.600;19.242;2024-01-15T10:16:33;2.92;;;2.55;;
62933;SDS011;49038;47.600;19.242;2024-01-15T10:19:35;6.12;;;4.03;;
62933;SDS011;49038;47.600;19.242;2024-01-15T10:22:41;8.27;;;4.75;;
62933;SDS011;49038;47.600;19.242;2024-01-15T10:25:44;3.40;;;3.10;;
62933;SDS011;49038;47.600;19.242;2024-01-15T10:28:49;6.28;;;3.95;;
62933;SDS011;49038;47.600;19.242;2024-01-15T10:31:53;10.40;;;5.57;;
62933;SDS011;49038;47.600;19.242;2024-01-15T10:34:55;5.45;;;4.85;;
62933;SDS011;49038;47.600;19.242;2024-01-15T10:38:01;8.98;;;4.97;;
62933;SDS011;49038;47.600;19.242;2024-01-15T10:41:04;6.15;;;4.03;;
62933;SDS011;49038;47.600;19.242;2024-01-15T10:44:07;3.53;;;3.22;;
62933;SDS011;49038;47.600;19.242;2024-01-15T10:47:09;6.18;;;4.00;;
62933;SDS011;49038;47.600;19.242;2024-01-15T10:50:12;4.75;;;3.85;;
62933;SDS011;49038;47.600;19.242;2024-01-15T10:53:15;4.60;;;3.47;;
62933;SDS011;49038;47.600;19.242;2024-01-15T10:56:18;3.37;;;2.87;;
62933;SDS011;49038;47.600;19.242;2024-01-15T10:59:20;2.37;;;2.20;;
62933;SDS011;49038;47.600;19.242;2024-01-15T11:02:24;4.68;;;2.67;;
62933;SDS011;49038;47.600;19.242;2024-01-15T11:05:28;4.20;;;3.42;;
62933;SDS011;49038;47.600;19.242;2024-01-15T11:08:30;5.37;;;2.92;;
62933;SDS011;49038;47.600;19.242;2024-01-15T11:11:35;4.75;;;4.25;;
62933;SDS011;49038;47.600;19.242;2024-01-15T11:14:41;3.53;;;2.80;;
62933;SDS011;49038;47.600;19.242;2024-01-15T11:18:00;4.32;;;3.65;;
62933;SDS011;49038;47.600;19.242;2024-01-15T11:24:39;4.40;;;2.87;;
62933;SDS011;49038;47.600;19.242;2024-01-15T11:27:42;3.97;;;3.17;;
62933;SDS011;49038;47.600;19.242;2024-01-15T11:30:55;3.42;;;3.12;;
62933;SDS011;49038;47.600;19.242;2024-01-15T11:33:57;4.50;;;3.67;;
62933;SDS011;49038;47.600;19.242;2024-01-15T11:37:02;4.20;;;2.92;;
62933;SDS011;49038;47.600;19.242;2024-01-15T11:40:05;5.60;;;3.00;;
62933;SDS011;49038;47.600;19.242;2024-01-15T11:43:13;6.65;;;3.35;;
62933;SDS011;49038;47.600;19.242;2024-01-15T11:46:16;3.80;;;2.37;;
62933;SDS011;49038;47.600;19.242;2024-01-15T11:49:24;4.45;;;3.17;;
62933;SDS011;49038;47.600;19.242;2024-01-15T11:52:34;2.30;;;2.10;;
62933;SDS011;49038;47.600;19.242;2024-01-15T11:55:41;1.77;;;1.67;;
62933;SDS011;49038;47.600;19.242;2024-01-15T11:58:46;5.03;;;3.10;;
62933;SDS011;49038;47.600;19.242;2024-01-15T12:01:49;5.40;;;3.05;;
62933;SDS011;49038;47.600;19.242;2024-01-15T12:04:51;5.85;;;3.12;;
62933;SDS011;49038;47.600;19.242;2024-01-15T12:07:53;5.00;;;3.60;;
62933;SDS011;49038;47.600;19.242;2024-01-15T12:10:55;19.60;;;9.18;;
62933;SDS011;49038;47.600;19.242;2024-01-15T12:13:59;19.23;;;8.73;;
62933;SDS011;49038;47.600;19.242;2024-01-15T12:17:02;14.05;;;7.12;;
62933;SDS011;49038;47.600;19.242;2024-01-15T12:20:07;22.92;;;9.10;;
62933;SDS011;49038;47.600;19.242;2024-01-15T12:23:09;6.45;;;3.60;;
62933;SDS011;49038;47.600;19.242;2024-01-15T12:26:12;2.75;;;1.75;;
62933;SDS011;49038;47.600;19.242;2024-01-15T12:29:14;4.20;;;2.05;;
62933;SDS011;49038;47.600;19.242;2024-01-15T12:32:19;2.53;;;2.28;;
62933;SDS011;49038;47.600;19.242;2024-01-15T12:35:24;3.12;;;2.00;;
62933;SDS011;49038;47.600;19.242;2024-01-15T12:38:28;2.78;;;2.03;;
62933;SDS011;49038;47.600;19.242;2024-01-15T12:41:30;2.55;;;2.35;;
62933;SDS011;49038;47.600;19.242;2024-01-15T12:44:32;1.95;;;1.85;;
62933;SDS011;49038;47.600;19.242;2024-01-15T12:47:36;3.05;;;1.50;;
62933;SDS011;49038;47.600;19.242;2024-01-15T12:50:38;2.12;;;1.75;;
62933;SDS011;49038;47.600;19.242;2024-01-15T12:53:41;2.72;;;1.92;;
62933;SDS011;49038;47.600;19.242;2024-01-15T12:56:43;1.40;;;1.30;;
62933;SDS011;49038;47.600;19.242;2024-01-15T12:59:46;3.25;;;2.95;;
62933;SDS011;49038;47.600;19.242;2024-01-15T13:02:48;19.48;;;7.20;;
62933;SDS011;49038;47.600;19.242;2024-01-15T13:05:51;9.88;;;5.72;;
62933;SDS011;49038;47.600;19.242;2024-01-15T13:08:54;9.98;;;4.85;;
62933;SDS011;49038;47.600;19.242;2024-01-15T13:11:57;3.90;;;3.35;;
62933;SDS011;49038;47.600;19.242;2024-01-15T13:14:59;7.05;;;4.43;;
62933;SDS011;49038;47.600;19.242;2024-01-15T13:18:01;5.47;;;3.40;;
62933;SDS011;49038;47.600;19.242;2024-01-15T13:21:04;5.87;;;4.25;;
62933;SDS011;49038;47.600;19.242;2024-01-15T13:24:06;3.50;;;2.62;;
62933;SDS011;49038;47.600;19.242;2024-01-15T13:27:08;2.17;;;1.98;;
62933;SDS011;49038;47.600;19.242;2024-01-15T13:30:11;6.70;;;2.92;;
62933;SDS011;49038;47.600;19.242;2024-01-15T13:33:14;4.75;;;2.97;;
62933;SDS011;49038;47.600;19.242;2024-01-15T13:36:17;4.40;;;3.37;;
62933;SDS011;49038;47.600;19.242;2024-01-15T13:39:19;3.55;;;2.92;;
62933;SDS011;49038;47.600;19.242;2024-01-15T13:42:22;5.85;;;2.80;;
62933;SDS011;49038;47.600;19.242;2024-01-15T13:45:25;3.20;;;2.15;;
62933;SDS011;49038;47.600;19.242;2024-01-15T13:48:27;4.47;;;2.95;;
62933;SDS011;49038;47.600;19.242;2024-01-15T13:51:30;3.15;;;2.40;;
62933;SDS011;49038;47.600;19.242;2024-01-15T13:54:32;4.70;;;3.65;;
62933;SDS011;49038;47.600;19.242;2024-01-15T13:57:49;2.90;;;2.58;;
62933;SDS011;49038;47.600;19.242;2024-01-15T14:00:51;5.20;;;2.40;;
62933;SDS011;49038;47.600;19.242;2024-01-15T14:03:54;4.93;;;2.50;;
62933;SDS011;49038;47.600;19.242;2024-01-15T14:06:56;3.75;;;3.05;;
62933;SDS011;49038;47.600;19.242;2024-01-15T14:09:59;2.97;;;2.47;;
62933;SDS011;49038;47.600;19.242;2024-01-15T14:13:01;2.30;;;2.10;;
62933;SDS011;49038;47.600;19.242;2024-01-15T14:16:04;3.92;;;2.33;;
62933;SDS011;49038;47.600;19.242;2024-01-15T14:19:07;5.00;;;2.08;;
62933;SDS011;49038;47.600;19.242;2024-01-15T14:22:12;3.00;;;2.28;;
62933;SDS011;49038;47.600;19.242;2024-01-15T14:25:14;4.90;;;3.50;;
62933;SDS011;49038;47.600;19.242;2024-01-15T14:28:17;3.05;;;2.70;;
62933;SDS011;49038;47.600;19.242;2024-01-15T14:31:19;4.35;;;3.10;;
62933;SDS011;49038;47.600;19.242;2024-01-15T14:34:22;8.10;;;2.17;;
62933;SDS011;49038;47.600;19.242;2024-01-15T14:37:26;23.67;;;3.95;;
62933;SDS011;49038;47.600;19.242;2024-01-15T14:40:28;4.40;;;2.55;;
62933;SDS011;49038;47.600;19.242;2024-01-15T14:43:31;10.70;;;5.18;;
62933;SDS011;49038;47.600;19.242;2024-01-15T14:46:34;8.18;;;4.95;;
62933;SDS011;49038;47.600;19.242;2024-01-15T14:49:37;7.55;;;4.37;;
62933;SDS011;49038;47.600;19.242;2024-01-15T14:52:39;4.78;;;3.37;;
62933;SDS011;49038;47.600;19.242;2024-01-15T14:55:44;6.22;;;3.45;;
62933;SDS011;49038;47.600;19.242;2024-01-15T14:58:47;6.20;;;4.15;;
62933;SDS011;49038;47.600;19.242;2024-01-15T15:01:49;5.82;;;3.53;;
62933;SDS011;49038;47.600;19.242;2024-01-15T15:04:51;3.97;;;2.50;;
62933;SDS011;49038;47.600;19.242;2024-01-15T15:07:54;2.97;;;2.50;;
62933;SDS011;49038;47.600;19.242;2024-01-15T15:10:56;5.85;;;3.67;;
62933;SDS011;49038;47.600;19.242;2024-01-15T15:13:58;5.90;;;3.75;;
62933;SDS011;49038;47.600;19.242;2024-01-15T15:17:02;5.75;;;4.07;;
62933;SDS011;49038;47.600;19.242;2024-01-15T15:20:05;9.18;;;3.83;;
62933;SDS011;49038;47.600;19.242;2024-01-15T15:23:09;5.18;;;3.42;;
62933;SDS011;49038;47.600;19.242;2024-01-15T15:26:13;5.80;;;3.03;;
62933;SDS011;49038;47.600;19.242;2024-01-15T15:29:15;3.50;;;2.45;;
62933;SDS011;49038;47.600;19.242;2024-01-15T15:32:18;5.72;;;2.67;;
62933;SDS011;49038;47.600;19.242;2024-01-15T15:35:21;6.57;;;3.15;;
62933;SDS011;49038;47.600;19.242;2024-01-15T15:38:23;6.62;;;3.25;;
62933;SDS011;49038;47.600;19.242;2024-01-15T15:41:25;5.78;;;4.43;;
62933;SDS011;49038;47.600;19.242;2024-01-15T15:44:27;13.30;;;4.45;;
62933;SDS011;49038;47.600;19.242;2024-01-15T15:47:30;6.87;;;4.32;;
62933;SDS011;49038;47.600;19.242;2024-01-15T15:50:33;7.60;;;3.95;;
62933;SDS011;49038;47.600;19.242;2024-01-15T15:53:37;6.30;;;3.85;;
62933;SDS011;49038;47.600;19.242;2024-01-15T15:56:39;5.53;;;3.83;;
62933;SDS011;49038;47.600;19.242;2024-01-15T15:59:41;20.15;;;4.07;;
62933;SDS011;49038;47.600;19.242;2024-01-15T16:02:44;6.25;;;5.12;;
62933;SDS011;49038;47.600;19.242;2024-01-15T16:05:46;7.00;;;4.55;;
62933;SDS011;49038;47.600;19.242;2024-01-15T16:08:54;6.70;;;4.25;;
62933;SDS011;49038;47.600;19.242;2024-01-15T16:11:56;17.58;;;3.80;;
62933;SDS011;49038;47.600;19.242;2024-01-15T16:15:02;4.35;;;3.08;;
62933;SDS011;49038;47.600;19.242;2024-01-15T16:18:18;9.35;;;4.93;;
62933;SDS011;49038;47.600;19.242;2024-01-15T16:21:40;6.15;;;4.28;;
62933;SDS011;49038;47.600;19.242;2024-01-15T16:25:07;5.15;;;4.65;;
62933;SDS011;49038;47.600;19.242;2024-01-15T16:28:10;6.22;;;4.47;;
62933;SDS011;49038;47.600;19.242;2024-01-15T16:31:13;7.97;;;5.35;;
62933;SDS011;49038;47.600;19.242;2024-01-15T16:34:15;15.65;;;9.63;;
62933;SDS011;49038;47.600;19.242;2024-01-15T16:37:17;30.83;;;13.27;;
62933;SDS011;49038;47.600;19.242;2024-01-15T16:40:22;28.35;;;11.60;;
62933;SDS011;49038;47.600;19.242;2024-01-15T16:43:25;107.60;;;34.45;;
62933;SDS011;49038;47.600;19.242;2024-01-15T16:46:28;18.30;;;8.75;;
62933;SDS011;49038;47.600;19.242;2024-01-15T16:49:30;25.30;;;10.63;;
62933;SDS011;49038;47.600;19.242;2024-01-15T16:52:33;12.63;;;6.45;;
62933;SDS011;49038;47.600;19.242;2024-01-15T16:55:35;9.95;;;6.05;;
62933;SDS011;49038;47.600;19.242;2024-01-15T16:58:38;5.47;;;3.72;;
62933;SDS011;49038;47.600;19.242;2024-01-15T17:01:41;3.67;;;2.72;;
62933;SDS011;49038;47.600;19.242;2024-01-15T17:04:43;17.58;;;8.82;;
62933;SDS011;49038;47.600;19.242;2024-01-15T17:07:45;6.65;;;4.10;;
62933;SDS011;49038;47.600;19.242;2024-01-15T17:10:48;16.02;;;7.72;;
62933;SDS011;49038;47.600;19.242;2024-01-15T17:13:50;5.62;;;4.87;;
62933;SDS011;49038;47.600;19.242;2024-01-15T17:16:52;14.40;;;7.20;;
62933;SDS011;49038;47.600;19.242;2024-01-15T17:19:57;7.05;;;2.47;;
62933;SDS011;49038;47.600;19.242;2024-01-15T17:23:00;2.87;;;2.65;;
62933;SDS011;49038;47.600;19.242;2024-01-15T17:26:03;2.40;;;1.85;;
62933;SDS011;49038;47.600;19.242;2024-01-15T17:29:05;2.08;;;1.95;;
62933;SDS011;49038;47.600;19.242;2024-01-15T17:32:08;2.40;;;2.20;;
62933;SDS011;49038;47.600;19.242;2024-01-15T17:35:10;2.05;;;1.80;;
62933;SDS011;49038;47.600;19.242;2024-01-15T17:38:13;3.90;;;2.15;;
62933;SDS011;49038;47.600;19.242;2024-01-15T17:41:16;2.67;;;2.05;;
62933;SDS011;49038;47.600;19.242;2024-01-15T17:44:18;4.25;;;2.37;;
62933;SDS011;49038;47.600;19.242;2024-01-15T17:47:21;4.45;;;2.28;;
62933;SDS011;49038;47.600;19.242;2024-01-15T17:50:23;1.40;;;1.30;;
62933;SDS011;49038;47.600;19.242;2024-01-15T17:53:26;4.12;;;2.65;;
62933;SDS011;49038;47.600;19.242;2024-01-15T17:56:28;11.25;;;2.95;;
62933;SDS011;49038;47.600;19.242;2024-01-15T17:59:31;7.68;;;4.15;;